This demonstration page uses our WeatherBlox Daily Observations layout. Learn more.

Left ArrowRight Arrow

Hourly Observations for February 9, 2016

Temp ( °F °C ) Dew Point ( °F °C ) Humidity (%) Winds ( mph kmh ) Pressure ( in mb ) Visibility ( mi km ) Precip ( " mm )
12:51 am 00:51 Clear 51 10.6 21 -6.1 31 31 ESE 12 19 30.22 1023 10 16.0934 N/A
1:51 am 01:51 Clear 48 8.9 22 -5.6 36 36 SE 8 13 30.22 1023 10 16.0934 N/A
2:51 am 02:51 Clear 45 7.2 22 -5.6 40 40 SE 10 17 30.22 1023 10 16.0934 N/A
3:51 am 03:51 Clear 47 8.3 22 -5.6 37 37 SE 14 22 30.2 1023 10 16.0934 N/A
4:51 am 04:51 Clear 46 7.8 24 -4.4 42 42 E 12 19 30.21 1023 10 16.0934 N/A
5:51 am 05:51 Clear 47 8.3 24 -4.4 41 41 SE 13 20 30.23 1024 10 16.0934 N/A
6:51 am 06:51 Clear 45 7.2 24 -4.4 44 44 ESE 15 24 30.27 1025 10 16.0934 N/A
7:51 am 07:51 Sunny 47 8.3 24 -4.4 41 41 ESE 13 20 30.28 1026 10 16.0934 N/A
8:51 am 08:51 Sunny 52 11.1 24 -4.4 34 34 ESE 15 24 30.3 1026 10 16.0934 N/A
9:51 am 09:51 Sunny 59 15 24 -4.4 26 26 ESE 12 19 30.3 1026 10 16.0934 N/A
10:51 am 10:51 Sunny 62 16.7 23 -5 22 22 SE 9 15 30.28 1026 10 16.0934 N/A
11:51 am 11:51 Sunny 64 17.8 21 -6.1 19 19 S 7 11 30.26 1025 10 16.0934 N/A
12:51 pm 12:51 Sunny 67 19.4 22 -5.6 18 18 S 9 15 30.2 1023 10 16.0934 N/A
1:51 pm 13:51 Sunny 69 20.6 21 -6.1 16 16 SSW 8 13 30.16 1022 10 16.0934 N/A
2:51 pm 14:51 Sunny 71 21.7 21 -6.1 15 15 SSE 9 15 30.14 1021 10 16.0934 N/A
3:51 pm 15:51 Sunny 72 22.2 20 -6.7 14 14 S 8 13 30.12 1020 10 16.0934 N/A
4:51 pm 16:51 Sunny 72 22.2 20 -6.7 14 14 SSE 3 6 30.12 1020 10 16.0934 N/A
5:51 pm 17:51 Sunny 67 19.4 20 -6.7 17 17 SSW 5 7 30.13 1020 10 16.0934 N/A
6:51 pm 18:51 Clear 55 12.8 23 -5 29 29 N N/A 30.17 1022 10 16.0934 N/A
7:51 pm 19:51 Clear 52 11.1 22 -5.6 31 31 N N/A 30.18 1022 10 16.0934 N/A
8:51 pm 20:51 Clear 51 10.6 23 -5 33 33 E 3 6 30.18 1022 10 16.0934 N/A
9:51 pm 21:51 Clear 49 9.4 23 -5 36 36 ESE 5 7 30.19 1022 10 16.0934 N/A
10:51 pm 22:51 Clear 50 10 23 -5 35 35 SE 9 15 30.2 1023 10 16.0934 N/A
11:51 pm 23:51 Clear 47 8.3 24 -4.4 41 41 E 8 13 30.2 1023 10 16.0934 N/A

Powered by AerisWeather